Time;durP1;ratioP1;P1;durP2;ratioP2;P2;SDS_P1;SDS_P2;PMS_P1;PMS_P2;Temp;Humidity;BMP_temperature;BMP_pressure;BME280_temperature;BME280_humidity;BME280_pressure;Samples;Min_cycle;Max_cycle;Signal;HPM_P1;HPM_P2
2021/01/17 00:00:32;;;;;;;22.17;15.05;;;6.00;59.80;;;;;;2105127;28;20035;-60
2021/01/17 00:01:53;;;;;;;22.75;15.35;;;6.00;59.80;;;;;;2105062;28;20036;-59
2021/01/17 00:03:14;;;;;;;20.40;14.27;;;6.00;59.80;;;;;;2105328;28;20016;-59
2021/01/17 00:04:35;;;;;;;20.27;14.10;;;6.00;59.80;;;;;;2104469;28;20030;-60
2021/01/17 00:05:56;;;;;;;21.52;14.90;;;6.00;59.90;;;;;;2105562;28;20028;-59
2021/01/17 00:07:18;;;;;;;23.27;15.35;;;6.00;59.90;;;;;;2105399;28;20450;-59
2021/01/17 00:08:38;;;;;;;21.23;14.48;;;6.00;59.80;;;;;;2106130;28;20036;-59
2021/01/17 00:09:59;;;;;;;22.48;15.32;;;6.00;59.80;;;;;;2102844;28;20546;-60
2021/01/17 00:11:20;;;;;;;20.85;13.80;;;6.00;59.70;;;;;;2104086;28;20024;-60
2021/01/17 00:12:41;;;;;;;20.02;13.45;;;6.00;59.70;;;;;;2108866;28;20117;-60
2021/01/17 00:14:02;;;;;;;21.75;14.88;;;6.00;59.80;;;;;;2103297;28;20040;-60
2021/01/17 00:15:23;;;;;;;20.33;14.18;;;6.00;59.80;;;;;;2106133;28;20031;-60
2021/01/17 00:16:44;;;;;;;20.73;13.85;;;6.00;59.80;;;;;;2103592;28;20031;-60
2021/01/17 00:18:06;;;;;;;21.52;14.77;;;6.00;59.80;;;;;;2106276;28;20761;-59
2021/01/17 00:19:27;;;;;;;17.55;13.20;;;6.00;59.70;;;;;;2105129;28;20028;-59
2021/01/17 00:20:48;;;;;;;22.05;14.65;;;6.00;59.70;;;;;;2102936;28;20020;-60
2021/01/17 00:22:09;;;;;;;20.65;14.15;;;6.00;59.80;;;;;;2106652;28;20020;-59
2021/01/17 00:23:30;;;;;;;21.88;15.10;;;6.00;59.80;;;;;;2103422;28;20024;-60
2021/01/17 00:24:50;;;;;;;21.55;14.80;;;6.00;59.90;;;;;;2103577;28;20016;-59
2021/01/17 00:26:11;;;;;;;20.73;13.63;;;6.00;59.90;;;;;;2104178;28;20048;-59
2021/01/17 00:27:32;;;;;;;20.23;14.00;;;6.00;59.90;;;;;;2104018;28;20028;-60
2021/01/17 00:28:53;;;;;;;21.27;14.20;;;6.00;59.90;;;;;;2106104;28;20098;-59
2021/01/17 00:30:16;;;;;;;20.38;13.93;;;6.00;60.00;;;;;;2105259;28;20027;-59
2021/01/17 00:31:37;;;;;;;20.92;15.13;;;6.00;60.00;;;;;;2104820;28;20488;-60
2021/01/17 00:32:59;;;;;;;23.60;15.07;;;6.00;60.00;;;;;;2102633;28;20039;-59
2021/01/17 00:34:20;;;;;;;23.42;14.77;;;6.00;59.90;;;;;;2102343;28;20458;-59
2021/01/17 00:35:41;;;;;;;21.52;14.55;;;6.00;59.90;;;;;;2105107;28;20371;-59
2021/01/17 00:37:02;;;;;;;20.17;14.27;;;6.00;59.90;;;;;;2102246;28;20036;-60
2021/01/17 00:38:23;;;;;;;23.45;15.23;;;6.00;59.90;;;;;;2110678;28;20046;-58
2021/01/17 00:39:44;;;;;;;23.10;14.75;;;6.10;60.00;;;;;;2105313;28;20028;-60
2021/01/17 00:41:05;;;;;;;21.52;13.45;;;6.10;59.90;;;;;;2103065;28;20036;-60
2021/01/17 00:42:26;;;;;;;22.83;15.23;;;6.10;59.90;;;;;;2104636;28;20106;-60
2021/01/17 00:43:47;;;;;;;21.48;14.77;;;6.10;59.80;;;;;;2101738;28;20020;-59
2021/01/17 00:45:08;;;;;;;21.15;14.25;;;6.10;59.80;;;;;;2104877;28;20451;-60
2021/01/17 00:46:39;;;;;;;17.77;13.48;;;6.10;59.60;;;;;;2103244;28;20599;-60
2021/01/17 00:48:00;;;;;;;21.02;13.68;;;6.10;59.70;;;;;;2102949;28;20039;-59
2021/01/17 00:49:21;;;;;;;21.48;13.48;;;6.10;59.70;;;;;;2106420;28;20111;-59
2021/01/17 00:50:42;;;;;;;20.85;14.40;;;6.10;59.70;;;;;;2096397;28;20035;-59
2021/01/17 00:52:03;;;;;;;21.35;14.77;;;6.00;59.70;;;;;;2100961;28;20060;-59
2021/01/17 00:53:24;;;;;;;21.60;14.32;;;6.10;59.80;;;;;;2106178;28;20059;-59
2021/01/17 00:54:45;;;;;;;22.73;15.00;;;6.10;59.90;;;;;;2100930;28;20081;-59
2021/01/17 00:56:06;;;;;;;21.52;14.52;;;6.00;59.80;;;;;;2105188;28;20103;-59
2021/01/17 00:57:27;;;;;;;23.42;15.00;;;6.10;59.90;;;;;;2103681;28;20505;-59
2021/01/17 00:58:48;;;;;;;21.65;14.60;;;6.10;59.80;;;;;;2104622;28;20035;-59
2021/01/17 01:00:11;;;;;;;25.30;15.27;;;6.10;59.90;;;;;;2103036;28;20032;-59
2021/01/17 01:01:43;;;;;;;20.40;14.27;;;6.10;59.80;;;;;;2106394;28;20036;-60
2021/01/17 01:03:04;;;;;;;19.77;13.88;;;6.00;59.80;;;;;;2106499;28;20040;-60
2021/01/17 01:04:25;;;;;;;20.85;13.95;;;6.10;59.80;;;;;;2104693;28;20074;-59
2021/01/17 01:05:46;;;;;;;21.48;14.50;;;6.10;59.80;;;;;;2102604;28;20627;-60
2021/01/17 01:07:07;;;;;;;20.80;13.60;;;6.10;59.80;;;;;;2105864;28;20107;-60
2021/01/17 01:08:27;;;;;;;23.75;15.13;;;6.10;59.80;;;;;;2107322;28;20709;-59
2021/01/17 01:09:48;;;;;;;21.35;14.75;;;6.10;59.80;;;;;;2107601;28;20351;-59
2021/01/17 01:11:09;;;;;;;22.17;15.75;;;6.10;59.90;;;;;;2107278;28;20056;-59
2021/01/17 01:12:30;;;;;;;22.38;14.20;;;6.10;59.90;;;;;;2106032;28;20020;-59
2021/01/17 01:13:51;;;;;;;23.48;15.68;;;6.10;59.90;;;;;;2107321;28;20016;-59
2021/01/17 01:15:12;;;;;;;23.02;15.98;;;6.10;59.90;;;;;;2107800;28;20082;-58
2021/01/17 01:16:33;;;;;;;23.05;16.25;;;6.10;59.90;;;;;;2106912;28;20027;-59
2021/01/17 01:17:54;;;;;;;22.73;15.18;;;6.10;59.90;;;;;;2104104;28;20047;-59
2021/01/17 01:19:15;;;;;;;23.25;15.13;;;6.10;59.80;;;;;;2107588;28;20028;-59
2021/01/17 01:20:36;;;;;;;20.77;14.55;;;6.10;59.80;;;;;;2106886;28;20016;-59
2021/01/17 01:22:01;;;;;;;23.38;14.93;;;6.10;59.70;;;;;;2104040;28;20059;-59
2021/01/17 01:23:22;;;;;;;23.67;14.65;;;6.10;59.70;;;;;;2107562;28;20111;-59
2021/01/17 01:24:43;;;;;;;21.27;14.07;;;6.10;59.70;;;;;;2106291;28;20032;-59
2021/01/17 01:26:03;;;;;;;21.52;14.82;;;6.10;59.60;;;;;;2105669;28;20032;-59
2021/01/17 01:27:24;;;;;;;23.08;15.05;;;6.10;59.70;;;;;;2108083;28;20115;-59
2021/01/17 01:28:45;;;;;;;24.48;14.57;;;6.10;59.70;;;;;;2105497;28;20036;-58
2021/01/17 01:30:07;;;;;;;22.25;14.77;;;6.10;59.70;;;;;;2104656;28;20036;-59
2021/01/17 01:31:28;;;;;;;20.90;15.35;;;6.10;59.70;;;;;;2106739;28;20047;-59
2021/01/17 01:32:50;;;;;;;21.52;14.30;;;6.10;59.70;;;;;;2105830;28;20028;-61
2021/01/17 01:34:11;;;;;;;18.77;12.93;;;6.00;59.60;;;;;;2106828;28;20032;-58
2021/01/17 01:35:32;;;;;;;18.88;13.07;;;6.10;59.70;;;;;;2106307;28;20085;-60
2021/01/17 01:36:53;;;;;;;22.23;14.60;;;6.00;59.80;;;;;;2106880;28;20422;-60
2021/01/17 01:38:15;;;;;;;24.88;14.93;;;6.00;59.80;;;;;;2111591;28;20032;-58
2021/01/17 01:39:38;;;;;;;24.48;15.30;;;6.10;60.00;;;;;;2105116;28;20490;-59
2021/01/17 01:40:59;;;;;;;23.00;14.40;;;6.10;60.00;;;;;;2104912;28;20646;-59
2021/01/17 01:42:19;;;;;;;23.60;15.13;;;6.00;59.90;;;;;;2108226;28;20028;-59
2021/01/17 01:43:41;;;;;;;20.17;14.05;;;6.10;60.00;;;;;;2111390;28;20028;-60
2021/01/17 01:45:02;;;;;;;23.95;15.23;;;6.10;60.00;;;;;;2104779;28;20047;-59
2021/01/17 01:46:25;;;;;;;21.25;14.73;;;6.10;60.00;;;;;;2105728;28;20024;-60
2021/01/17 01:47:46;;;;;;;22.90;15.15;;;6.10;60.00;;;;;;2104554;28;20458;-60
2021/01/17 01:49:09;;;;;;;26.35;15.60;;;6.10;59.90;;;;;;2106467;28;20024;-59
2021/01/17 01:50:30;;;;;;;22.40;14.40;;;6.10;59.90;;;;;;2107555;28;20055;-60
2021/01/17 01:51:51;;;;;;;21.85;14.38;;;6.10;59.80;;;;;;2103712;28;20547;-60
2021/01/17 01:53:13;;;;;;;24.23;14.60;;;6.10;59.80;;;;;;2106876;28;20039;-60
2021/01/17 01:54:36;;;;;;;21.45;14.45;;;6.10;59.90;;;;;;2106088;28;20032;-60
2021/01/17 01:55:58;;;;;;;22.65;14.85;;;6.10;59.90;;;;;;2107795;28;20146;-60
2021/01/17 01:57:19;;;;;;;23.52;14.25;;;6.10;59.90;;;;;;2106049;28;20111;-60
2021/01/17 01:58:41;;;;;;;22.83;14.68;;;6.10;59.90;;;;;;2105718;28;20028;-60
2021/01/17 02:00:06;;;;;;;22.60;14.05;;;6.10;60.00;;;;;;2104998;28;20160;-60
2021/01/17 02:01:27;;;;;;;20.02;13.55;;;6.10;60.00;;;;;;2106266;28;20032;-60
2021/01/17 02:02:48;;;;;;;20.63;13.57;;;6.10;59.90;;;;;;2105543;28;20081;-60
2021/01/17 02:04:09;;;;;;;20.98;13.75;;;6.10;59.90;;;;;;2106566;28;20028;-60
2021/01/17 02:05:30;;;;;;;21.38;14.18;;;6.10;59.90;;;;;;2107854;28;20099;-60
2021/01/17 02:07:21;;;;;;;20.77;13.88;;;6.10;60.00;;;;;;2102779;28;20027;-58
2021/01/17 02:09:03;;;;;;;22.30;14.02;;;6.10;60.20;;;;;;2107106;28;20026;-59
2021/01/17 02:10:24;;;;;;;20.90;14.25;;;6.20;60.20;;;;;;2103453;28;20044;-58
2021/01/17 02:12:12;;;;;;;21.42;13.88;;;6.20;60.00;;;;;;2102024;28;20401;-58
2021/01/17 02:13:39;;;;;;;18.15;13.07;;;6.20;60.20;;;;;;2104425;28;20046;-58
2021/01/17 02:15:03;;;;;;;22.63;14.20;;;6.20;60.00;;;;;;2103415;28;20459;-59
2021/01/17 02:16:24;;;;;;;21.13;13.90;;;6.20;59.90;;;;;;2108251;28;20024;-58
2021/01/17 02:17:45;;;;;;;21.15;13.63;;;6.20;59.90;;;;;;2103871;28;20027;-58
2021/01/17 02:19:11;;;;;;;20.50;14.30;;;6.20;59.90;;;;;;2104046;28;20025;-58
2021/01/17 02:20:35;;;;;;;22.05;14.07;;;6.20;59.90;;;;;;2105829;28;20048;-59
2021/01/17 02:22:02;;;;;;;20.58;13.98;;;6.20;59.90;;;;;;2104353;28;20430;-59
2021/01/17 02:23:25;;;;;;;20.73;13.82;;;6.20;60.00;;;;;;2106791;28;20574;-59
2021/01/17 02:25:00;;;;;;;20.23;13.45;;;6.20;60.00;;;;;;2099331;28;20039;-59
2021/01/17 02:26:21;;;;;;;22.23;14.27;;;6.20;60.20;;;;;;2104245;28;20028;-59
2021/01/17 02:27:44;;;;;;;21.38;14.10;;;6.20;60.00;;;;;;2105767;28;20016;-60
2021/01/17 02:29:10;;;;;;;21.70;14.38;;;6.20;60.00;;;;;;2105395;28;20079;-60
2021/01/17 02:30:35;;;;;;;21.30;13.73;;;6.20;59.90;;;;;;2110569;28;20462;-59
2021/01/17 02:31:59;;;;;;;22.88;14.73;;;6.20;59.90;;;;;;2105780;28;20024;-60
2021/01/17 02:33:20;;;;;;;21.88;14.43;;;6.20;59.90;;;;;;2103003;28;20051;-60
2021/01/17 02:34:41;;;;;;;21.23;14.48;;;6.20;59.90;;;;;;2105327;28;20528;-60
2021/01/17 02:36:34;;;;;;;22.65;14.05;;;6.20;59.90;;;;;;2105629;28;20506;-60
2021/01/17 02:38:20;;;;;;;22.10;13.93;;;6.20;59.90;;;;;;2104084;28;20028;-60
2021/01/17 02:39:56;;;;;;;20.40;13.45;;;6.20;59.80;;;;;;2107615;28;20074;-60
2021/01/17 02:41:29;;;;;;;21.63;13.55;;;6.20;60.50;;;;;;2106068;28;20028;-60
2021/01/17 02:42:51;;;;;;;19.23;12.88;;;6.20;59.80;;;;;;2106969;28;20035;-60
2021/01/17 02:44:13;;;;;;;22.75;14.35;;;6.20;59.70;;;;;;2104928;28;20028;-60
2021/01/17 02:45:35;;;;;;;22.00;14.15;;;6.20;59.70;;;;;;2106264;28;20023;-60
2021/01/17 02:46:56;;;;;;;21.70;13.77;;;6.20;59.70;;;;;;2104482;28;20678;-60
2021/01/17 02:48:17;;;;;;;21.58;14.65;;;6.20;59.80;;;;;;2106494;28;20455;-60
2021/01/17 02:49:38;;;;;;;23.75;14.40;;;6.20;59.80;;;;;;2106758;28;20024;-60
2021/01/17 02:50:59;;;;;;;22.42;14.20;;;6.20;59.80;;;;;;2105431;28;20035;-60
2021/01/17 02:52:32;;;;;;;20.10;14.82;;;6.20;59.80;;;;;;2103139;28;20366;-60
2021/01/17 02:54:10;;;;;;;20.15;13.93;;;6.20;60.00;;;;;;2103518;28;20457;-60
2021/01/17 02:55:34;;;;;;;21.92;13.50;;;6.20;60.10;;;;;;2106108;28;20486;-60
2021/01/17 02:57:10;;;;;;;23.45;14.52;;;6.20;59.90;;;;;;2106634;28;20024;-60
2021/01/17 02:58:34;;;;;;;19.55;12.23;;;6.10;59.80;;;;;;2107564;28;20032;-60
2021/01/17 03:00:05;;;;;;;20.67;14.05;;;6.10;59.60;;;;;;2104117;28;20039;-60
2021/01/17 03:01:29;;;;;;;19.42;12.77;;;6.10;59.70;;;;;;2104590;28;20063;-60
2021/01/17 03:02:52;;;;;;;22.50;14.45;;;6.10;59.70;;;;;;2104274;28;20373;-59
2021/01/17 03:04:30;;;;;;;24.27;15.25;;;6.10;59.70;;;;;;2106222;28;20481;-59
2021/01/17 03:05:51;;;;;;;25.52;13.45;;;6.00;59.70;;;;;;2104212;28;20017;-59
2021/01/17 03:07:13;;;;;;;23.98;14.70;;;6.10;59.70;;;;;;2105496;28;20059;-59
2021/01/17 03:08:36;;;;;;;21.40;14.63;;;6.00;59.70;;;;;;2106057;28;20221;-59
2021/01/17 03:09:58;;;;;;;24.70;13.70;;;6.00;59.80;;;;;;2103113;28;20034;-59
2021/01/17 03:11:20;;;;;;;23.38;14.73;;;6.00;59.90;;;;;;2106054;28;20031;-60
2021/01/17 03:12:41;;;;;;;22.20;14.27;;;6.00;60.10;;;;;;2106371;28;20032;-60
2021/01/17 03:14:05;;;;;;;24.42;15.23;;;6.00;60.10;;;;;;2103659;28;20032;-60
2021/01/17 03:15:28;;;;;;;21.35;13.93;;;6.00;60.20;;;;;;2105296;28;20078;-60
2021/01/17 03:16:49;;;;;;;22.63;14.65;;;6.00;60.20;;;;;;2103078;28;20028;-60
2021/01/17 03:18:10;;;;;;;24.42;14.50;;;6.00;60.20;;;;;;2104911;28;20434;-60
2021/01/17 03:19:31;;;;;;;26.08;15.15;;;6.00;60.10;;;;;;2104045;28;20028;-60
2021/01/17 03:20:52;;;;;;;22.48;14.43;;;6.00;60.20;;;;;;2105860;28;20020;-59
2021/01/17 03:22:14;;;;;;;23.73;14.50;;;6.00;60.20;;;;;;2106493;28;20067;-59
2021/01/17 03:23:35;;;;;;;24.40;15.32;;;6.00;60.30;;;;;;2105583;28;20016;-61
2021/01/17 03:24:56;;;;;;;25.17;15.15;;;6.00;60.20;;;;;;2095443;28;20021;-60
2021/01/17 03:26:17;;;;;;;20.55;13.93;;;6.00;60.30;;;;;;2102789;28;20073;-60
2021/01/17 03:27:38;;;;;;;21.23;13.98;;;6.00;60.30;;;;;;2105517;28;20031;-60
2021/01/17 03:28:58;;;;;;;21.50;14.05;;;6.00;60.30;;;;;;2105011;28;20060;-60
2021/01/17 03:30:20;;;;;;;21.25;14.38;;;6.00;60.30;;;;;;2103019;28;20032;-59
2021/01/17 03:31:41;;;;;;;20.85;14.07;;;6.00;60.40;;;;;;2103239;28;20033;-60
2021/01/17 03:33:02;;;;;;;22.73;14.60;;;6.00;60.50;;;;;;2106473;28;20036;-59
2021/01/17 03:34:23;;;;;;;24.42;14.40;;;6.00;60.40;;;;;;2109042;28;20035;-59
2021/01/17 03:35:43;;;;;;;25.30;14.80;;;6.00;60.40;;;;;;2106047;28;20024;-59
2021/01/17 03:37:05;;;;;;;26.75;14.57;;;6.00;61.20;;;;;;2104104;28;20036;-59
2021/01/17 03:38:26;;;;;;;25.02;14.95;;;6.00;60.50;;;;;;2106218;28;20657;-59
2021/01/17 03:39:47;;;;;;;21.08;14.05;;;6.10;60.60;;;;;;2101656;28;20058;-59
2021/01/17 03:41:12;;;;;;;22.13;13.77;;;6.00;60.50;;;;;;2106485;28;20054;-59
2021/01/17 03:42:33;;;;;;;22.13;14.25;;;6.10;60.70;;;;;;2108368;28;20034;-59
2021/01/17 03:43:54;;;;;;;22.42;14.02;;;6.10;60.60;;;;;;2095992;28;20021;-59
2021/01/17 03:45:15;;;;;;;22.75;14.80;;;6.10;60.60;;;;;;2105042;28;20459;-59
2021/01/17 03:46:36;;;;;;;27.33;15.30;;;6.10;61.40;;;;;;2104079;28;20032;-59
2021/01/17 03:47:57;;;;;;;19.35;12.85;;;6.10;60.70;;;;;;2104827;28;20035;-59
2021/01/17 03:49:18;;;;;;;25.80;15.15;;;6.10;60.70;;;;;;2104450;28;20036;-59
2021/01/17 03:50:38;;;;;;;22.42;13.82;;;6.10;60.80;;;;;;2097528;28;20025;-59
2021/01/17 03:51:59;;;;;;;23.42;13.40;;;6.10;60.70;;;;;;2102192;28;20043;-59
2021/01/17 03:53:20;;;;;;;23.77;13.73;;;6.10;60.70;;;;;;2103964;28;20028;-59
2021/01/17 03:54:41;;;;;;;23.83;15.18;;;6.10;60.70;;;;;;2104364;28;20028;-59
2021/01/17 03:56:02;;;;;;;21.10;13.63;;;6.10;60.70;;;;;;2106432;28;20071;-59
2021/01/17 03:57:23;;;;;;;22.85;14.32;;;6.10;60.60;;;;;;2107102;28;20484;-59
2021/01/17 03:58:44;;;;;;;22.73;14.23;;;6.10;60.50;;;;;;2104592;28;20036;-59
2021/01/17 04:00:06;;;;;;;24.85;15.18;;;6.10;60.70;;;;;;2103962;28;20370;-59
2021/01/17 04:01:27;;;;;;;24.67;14.77;;;6.10;60.70;;;;;;2104796;28;20450;-59
2021/01/17 04:02:48;;;;;;;20.48;14.45;;;6.10;60.70;;;;;;2104821;28;20028;-59
2021/01/17 04:04:09;;;;;;;22.33;15.25;;;6.10;61.50;;;;;;2105449;28;20700;-59
2021/01/17 04:05:30;;;;;;;22.17;14.68;;;6.10;60.80;;;;;;2103448;28;20055;-59
2021/01/17 04:06:51;;;;;;;24.35;14.70;;;6.10;60.80;;;;;;2102163;28;20336;-59
2021/01/17 04:08:12;;;;;;;22.45;14.27;;;6.10;60.80;;;;;;2105185;28;20031;-60
2021/01/17 04:09:33;;;;;;;21.10;13.57;;;6.10;60.90;;;;;;2105122;28;20040;-59
2021/01/17 04:10:53;;;;;;;23.33;14.32;;;6.10;60.80;;;;;;2103262;28;20031;-58
2021/01/17 04:12:14;;;;;;;21.33;14.98;;;6.10;60.80;;;;;;2104818;28;20020;-59
2021/01/17 04:13:35;;;;;;;19.35;12.63;;;6.10;60.80;;;;;;2105331;28;20081;-59
2021/01/17 04:14:56;;;;;;;21.85;13.88;;;6.10;60.80;;;;;;2103838;28;20024;-59
2021/01/17 04:16:17;;;;;;;20.42;14.18;;;6.10;61.00;;;;;;2105226;28;20024;-59
2021/01/17 04:17:38;;;;;;;21.83;14.52;;;6.10;61.00;;;;;;2105302;28;20092;-59
2021/01/17 04:18:59;;;;;;;21.05;13.95;;;6.10;61.00;;;;;;2101757;28;20370;-59
2021/01/17 04:20:20;;;;;;;21.50;13.75;;;6.10;61.00;;;;;;2100695;28;20112;-59
2021/01/17 04:21:40;;;;;;;22.77;13.98;;;6.20;61.10;;;;;;2097099;28;20364;-58
2021/01/17 04:23:04;;;;;;;19.38;14.10;;;6.10;61.00;;;;;;2103729;28;20171;-59
2021/01/17 04:24:25;;;;;;;21.88;13.38;;;6.10;61.00;;;;;;2106246;28;20020;-59
2021/01/17 04:25:46;;;;;;;20.40;13.68;;;6.20;61.10;;;;;;2101420;28;20074;-59
2021/01/17 04:27:07;;;;;;;19.67;13.75;;;6.20;61.10;;;;;;2106674;28;20107;-59
2021/01/17 04:28:28;;;;;;;20.90;13.73;;;6.20;61.10;;;;;;2106118;28;20396;-59
2021/01/17 04:29:48;;;;;;;19.27;12.93;;;6.20;61.10;;;;;;2105888;28;20024;-59
2021/01/17 04:31:09;;;;;;;23.80;14.20;;;6.20;61.20;;;;;;2105237;28;20016;-59
2021/01/17 04:32:30;;;;;;;22.35;14.13;;;6.20;61.20;;;;;;2103470;28;20114;-59
2021/01/17 04:33:51;;;;;;;23.60;14.75;;;6.20;61.10;;;;;;2104018;28;20020;-59
2021/01/17 04:35:13;;;;;;;19.98;13.55;;;6.20;61.20;;;;;;2105681;28;20426;-60
2021/01/17 04:36:34;;;;;;;22.48;14.32;;;6.20;61.10;;;;;;2097112;28;20028;-59
2021/01/17 04:37:57;;;;;;;20.52;13.68;;;6.20;61.10;;;;;;2098064;28;20394;-59
2021/01/17 04:39:18;;;;;;;20.52;14.07;;;6.20;61.10;;;;;;2101199;28;20135;-59
2021/01/17 04:40:39;;;;;;;22.95;14.32;;;6.20;61.10;;;;;;2096733;28;20035;-58
2021/01/17 04:42:02;;;;;;;21.58;13.55;;;6.20;61.10;;;;;;2102039;28;20028;-59
2021/01/17 04:43:37;;;;;;;20.40;13.65;;;6.30;61.20;;;;;;2102280;28;20031;-59
2021/01/17 04:45:06;;;;;;;18.60;13.10;;;6.30;61.30;;;;;;2103004;28;20035;-59
2021/01/17 04:46:29;;;;;;;17.65;12.63;;;6.30;61.30;;;;;;2106065;28;20024;-58
2021/01/17 04:47:51;;;;;;;20.67;13.85;;;6.30;61.10;;;;;;2105021;28;20427;-58
2021/01/17 04:49:12;;;;;;;20.30;13.32;;;6.30;61.00;;;;;;2106112;28;20347;-60
2021/01/17 04:50:34;;;;;;;21.30;12.98;;;6.30;61.10;;;;;;2106089;28;20130;-58
2021/01/17 04:51:57;;;;;;;20.58;14.18;;;6.30;61.20;;;;;;2102411;28;20032;-58
2021/01/17 04:53:19;;;;;;;20.20;13.95;;;6.30;61.30;;;;;;2105285;28;20024;-59
2021/01/17 04:54:41;;;;;;;19.08;12.32;;;6.30;61.30;;;;;;2106413;28;20036;-58
2021/01/17 04:56:14;;;;;;;21.48;12.85;;;6.30;61.40;;;;;;2097649;28;20036;-58
2021/01/17 04:58:03;;;;;;;18.08;13.02;;;6.40;61.60;;;;;;2106148;28;20036;-59
2021/01/17 04:59:35;;;;;;;20.30;12.90;;;6.30;61.40;;;;;;2102414;28;20066;-59
2021/01/17 05:00:57;;;;;;;20.02;12.73;;;6.40;61.40;;;;;;2100501;28;20020;-58
2021/01/17 05:02:32;;;;;;;18.10;12.90;;;6.40;61.40;;;;;;2106619;28;20354;-58
2021/01/17 05:04:14;;;;;;;18.58;12.35;;;6.40;61.60;;;;;;2102099;28;20055;-59
2021/01/17 05:05:51;;;;;;;18.48;12.63;;;6.40;61.50;;;;;;2096783;28;20459;-59
2021/01/17 05:07:17;;;;;;;20.67;13.38;;;6.40;61.40;;;;;;2100274;28;20032;-59
2021/01/17 05:08:44;;;;;;;20.42;12.82;;;6.40;61.30;;;;;;2102243;28;20020;-60
2021/01/17 05:10:11;;;;;;;18.67;12.02;;;6.50;61.30;;;;;;2100699;28;20390;-59
2021/01/17 05:11:41;;;;;;;17.83;12.60;;;6.40;61.30;;;;;;2109455;28;20043;-59
2021/01/17 05:13:11;;;;;;;17.88;12.27;;;6.50;61.40;;;;;;2104976;28;20469;-59
2021/01/17 05:14:43;;;;;;;20.08;13.23;;;6.50;61.40;;;;;;2103835;28;20047;-59
2021/01/17 05:16:07;;;;;;;20.27;13.13;;;6.50;61.40;;;;;;2109203;28;20031;-59
2021/01/17 05:17:40;;;;;;;19.17;12.15;;;6.50;61.30;;;;;;2106292;28;20024;-59
2021/01/17 05:19:02;;;;;;;19.75;13.73;;;6.50;61.40;;;;;;2106331;28;20025;-59
2021/01/17 05:20:23;;;;;;;19.65;12.98;;;6.50;61.30;;;;;;2102422;28;20024;-59
2021/01/17 05:21:49;;;;;;;18.05;12.00;;;6.50;61.30;;;;;;2105058;28;20067;-59
2021/01/17 05:23:10;;;;;;;20.48;12.50;;;6.50;61.40;;;;;;2108482;28;20374;-59
2021/01/17 05:24:35;;;;;;;19.17;13.00;;;6.50;61.40;;;;;;2107979;28;20038;-59
2021/01/17 05:25:56;;;;;;;24.15;12.90;;;6.50;61.40;;;;;;2102864;28;20029;-59
2021/01/17 05:27:17;;;;;;;17.88;12.75;;;6.50;61.40;;;;;;2108754;28;20493;-59
2021/01/17 05:28:38;;;;;;;21.98;13.30;;;6.50;61.50;;;;;;2109959;28;20066;-59
2021/01/17 05:29:59;;;;;;;21.42;12.80;;;6.50;61.50;;;;;;2104696;28;20047;-59
2021/01/17 05:31:23;;;;;;;23.67;12.90;;;6.50;61.50;;;;;;2105143;28;20025;-59
2021/01/17 05:32:50;;;;;;;18.85;12.60;;;6.60;61.70;;;;;;2104878;28;20016;-59
2021/01/17 05:34:14;;;;;;;21.55;13.07;;;6.60;61.70;;;;;;2105179;28;20150;-59
2021/01/17 05:35:35;;;;;;;20.50;13.05;;;6.60;61.70;;;;;;2105245;28;20421;-59
2021/01/17 05:37:02;;;;;;;20.25;13.50;;;6.60;61.70;;;;;;2103873;28;20036;-59
2021/01/17 05:38:23;;;;;;;21.20;13.38;;;6.60;61.70;;;;;;2102681;28;20370;-59
2021/01/17 05:40:03;;;;;;;22.23;12.93;;;6.60;61.70;;;;;;2100405;28;20024;-59
2021/01/17 05:41:25;;;;;;;25.30;14.82;;;6.60;61.80;;;;;;2104381;28;20032;-59
2021/01/17 05:42:47;;;;;;;21.33;14.38;;;6.60;61.60;;;;;;2092270;28;20043;-59
2021/01/17 05:44:08;;;;;;;20.83;13.32;;;6.60;61.50;;;;;;2103532;28;20031;-59
2021/01/17 05:45:29;;;;;;;20.45;12.93;;;6.60;61.50;;;;;;2098655;28;20040;-59
2021/01/17 05:47:04;;;;;;;23.63;13.98;;;6.60;61.50;;;;;;2104467;28;20473;-59
2021/01/17 05:48:25;;;;;;;21.38;12.30;;;6.60;61.70;;;;;;2106435;28;20020;-59
2021/01/17 05:49:50;;;;;;;20.38;13.30;;;6.70;61.60;;;;;;2105647;28;20021;-59
2021/01/17 05:51:27;;;;;;;22.02;13.00;;;6.60;61.50;;;;;;2107687;28;20027;-59
2021/01/17 05:52:52;;;;;;;20.70;14.45;;;6.70;61.60;;;;;;2103650;28;20335;-59
2021/01/17 05:54:13;;;;;;;21.83;12.38;;;6.70;61.40;;;;;;2106590;28;20438;-59
2021/01/17 05:55:40;;;;;;;19.98;12.57;;;6.60;61.30;;;;;;2107201;28;20117;-58
2021/01/17 05:57:23;;;;;;;21.33;14.25;;;6.60;61.40;;;;;;2110559;28;20088;-58
2021/01/17 05:58:44;;;;;;;24.38;15.15;;;6.60;61.50;;;;;;2106907;28;20028;-59
2021/01/17 06:00:06;;;;;;;20.23;13.27;;;6.60;62.10;;;;;;2108180;28;20051;-59
2021/01/17 06:01:27;;;;;;;22.92;13.57;;;6.60;61.30;;;;;;2105182;28;21735;-59
2021/01/17 06:02:54;;;;;;;19.73;12.40;;;6.60;61.50;;;;;;2103496;28;20020;-59
2021/01/17 06:04:15;;;;;;;23.20;13.32;;;6.60;61.70;;;;;;2106713;28;20115;-58
2021/01/17 06:05:37;;;;;;;17.30;11.77;;;6.60;61.60;;;;;;2106341;28;20028;-59
2021/01/17 06:06:59;;;;;;;19.25;12.88;;;6.60;61.60;;;;;;2102281;28;20028;-59
2021/01/17 06:08:20;;;;;;;21.05;13.45;;;6.60;61.70;;;;;;2105187;28;20016;-59
2021/01/17 06:09:43;;;;;;;19.17;12.77;;;6.70;61.80;;;;;;2103540;28;20088;-59
2021/01/17 06:11:10;;;;;;;22.60;13.63;;;6.60;61.70;;;;;;2105142;28;20028;-59
2021/01/17 06:12:39;;;;;;;21.52;13.52;;;6.60;61.80;;;;;;2104914;28;20115;-58
2021/01/17 06:14:03;;;;;;;18.88;12.98;;;6.70;61.90;;;;;;2105406;28;20039;-59
2021/01/17 06:15:34;;;;;;;19.35;12.45;;;6.70;61.90;;;;;;2103921;28;20028;-59
2021/01/17 06:17:03;;;;;;;25.77;13.48;;;6.70;61.90;;;;;;2103495;28;20379;-59
2021/01/17 06:18:25;;;;;;;20.57;14.13;;;6.70;61.90;;;;;;2103675;28;20052;-59
2021/01/17 06:19:54;;;;;;;21.38;12.95;;;6.70;61.80;;;;;;2105436;28;20256;-59
2021/01/17 06:21:16;;;;;;;19.85;12.57;;;6.70;61.90;;;;;;2105205;28;20035;-59
2021/01/17 06:22:37;;;;;;;24.65;13.95;;;6.70;61.80;;;;;;2106182;28;20032;-59
2021/01/17 06:24:04;;;;;;;21.67;13.32;;;6.70;61.90;;;;;;2103443;28;20031;-59
2021/01/17 06:25:29;;;;;;;21.30;12.77;;;6.70;61.90;;;;;;2108646;28;20114;-59
2021/01/17 06:26:52;;;;;;;23.13;13.38;;;6.70;61.90;;;;;;2106235;28;20035;-59
2021/01/17 06:28:14;;;;;;;20.80;13.20;;;6.70;61.90;;;;;;2105338;28;20031;-59
2021/01/17 06:29:36;;;;;;;23.10;13.35;;;6.70;61.80;;;;;;2104428;28;20703;-59
2021/01/17 06:30:58;;;;;;;22.92;13.70;;;6.70;61.80;;;;;;2105858;28;20039;-59
2021/01/17 06:32:21;;;;;;;20.23;13.18;;;6.70;61.90;;;;;;2106160;28;20020;-59
2021/01/17 06:33:42;;;;;;;20.20;13.65;;;6.80;61.90;;;;;;2106550;28;20048;-59
2021/01/17 06:35:03;;;;;;;17.95;12.98;;;6.80;62.00;;;;;;2107194;28;20024;-59
2021/01/17 06:36:29;;;;;;;18.85;12.30;;;6.70;61.90;;;;;;2105382;28;20028;-60
2021/01/17 06:37:50;;;;;;;20.20;12.40;;;6.70;62.00;;;;;;2104604;28;20362;-59
2021/01/17 06:39:22;;;;;;;20.58;13.65;;;6.80;62.00;;;;;;2105849;28;20043;-59
2021/01/17 06:40:45;;;;;;;24.50;13.23;;;6.80;62.10;;;;;;2105605;28;20157;-59
2021/01/17 06:42:10;;;;;;;22.38;13.30;;;6.80;62.00;;;;;;2106394;28;20020;-59
2021/01/17 06:43:31;;;;;;;20.70;12.00;;;6.80;62.00;;;;;;2104334;28;20032;-59
2021/01/17 06:44:53;;;;;;;19.40;12.90;;;6.80;62.00;;;;;;2104612;28;20032;-60
2021/01/17 06:46:14;;;;;;;19.83;12.60;;;6.80;62.00;;;;;;2106375;28;20440;-59
2021/01/17 06:47:35;;;;;;;19.45;12.75;;;6.80;62.00;;;;;;2105491;28;20028;-59
2021/01/17 06:49:14;;;;;;;23.13;13.25;;;6.80;62.00;;;;;;2105852;28;20046;-59
2021/01/17 06:50:35;;;;;;;19.92;13.02;;;6.80;62.20;;;;;;2104995;28;20036;-59
2021/01/17 06:51:58;;;;;;;21.35;13.20;;;6.80;61.90;;;;;;2102427;28;20028;-59
2021/01/17 06:53:25;;;;;;;21.50;13.90;;;6.80;61.80;;;;;;2106194;28;20426;-59
2021/01/17 06:54:53;;;;;;;21.10;13.68;;;6.80;61.80;;;;;;2106917;28;20412;-59
2021/01/17 06:56:19;;;;;;;23.25;14.07;;;6.80;61.80;;;;;;2107336;28;20535;-59
2021/01/17 06:57:41;;;;;;;22.23;13.45;;;6.80;61.70;;;;;;2106232;28;20036;-59
2021/01/17 06:59:03;;;;;;;19.08;13.13;;;6.80;61.70;;;;;;2105740;28;20036;-59
2021/01/17 07:00:23;;;;;;;21.50;12.98;;;6.80;61.70;;;;;;2103422;28;20067;-59
2021/01/17 07:01:53;;;;;;;20.95;13.85;;;6.80;61.80;;;;;;2101821;28;20467;-59
2021/01/17 07:03:42;;;;;;;21.08;14.60;;;6.80;61.80;;;;;;2106467;28;20024;-59
2021/01/17 07:05:35;;;;;;;21.88;13.18;;;6.70;62.00;;;;;;2098751;28;20058;-59
2021/01/17 07:07:08;;;;;;;19.00;12.07;;;6.70;61.80;;;;;;2103440;28;20040;-59
2021/01/17 07:08:51;;;;;;;16.83;11.88;;;6.70;61.90;;;;;;2104610;28;20040;-59
2021/01/17 07:10:13;;;;;;;19.55;12.88;;;6.70;62.10;;;;;;2101445;28;20033;-59